sensor_id;sensor_type;location;lat;lon;timestamp;P1;durP1;ratioP1;P2;durP2;ratioP2
140;SDS011;65;48.778;9.160;2023-02-02T00:00:48;9.48;;;2.65;;
140;SDS011;65;48.778;9.160;2023-02-02T00:03:14;8.60;;;2.47;;
140;SDS011;65;48.778;9.160;2023-02-02T00:05:46;10.02;;;2.50;;
140;SDS011;65;48.778;9.160;2023-02-02T00:08:13;11.18;;;2.25;;
140;SDS011;65;48.778;9.160;2023-02-02T00:10:40;9.57;;;2.30;;
140;SDS011;65;48.778;9.160;2023-02-02T00:13:05;9.57;;;2.10;;
140;SDS011;65;48.778;9.160;2023-02-02T00:15:31;8.55;;;2.38;;
140;SDS011;65;48.778;9.160;2023-02-02T00:17:56;6.80;;;2.10;;
140;SDS011;65;48.778;9.160;2023-02-02T00:20:21;11.63;;;2.53;;
140;SDS011;65;48.778;9.160;2023-02-02T00:22:48;7.93;;;2.20;;
140;SDS011;65;48.778;9.160;2023-02-02T00:25:13;8.10;;;2.05;;
140;SDS011;65;48.778;9.160;2023-02-02T00:27:39;11.80;;;2.30;;
140;SDS011;65;48.778;9.160;2023-02-02T00:30:05;9.10;;;2.33;;
140;SDS011;65;48.778;9.160;2023-02-02T00:32:31;7.93;;;2.42;;
140;SDS011;65;48.778;9.160;2023-02-02T00:34:56;7.55;;;2.20;;
140;SDS011;65;48.778;9.160;2023-02-02T00:37:22;7.80;;;2.13;;
140;SDS011;65;48.778;9.160;2023-02-02T00:39:47;9.60;;;2.35;;
140;SDS011;65;48.778;9.160;2023-02-02T00:42:12;13.50;;;2.67;;
140;SDS011;65;48.778;9.160;2023-02-02T00:44:38;10.90;;;2.45;;
140;SDS011;65;48.778;9.160;2023-02-02T00:47:22;9.68;;;2.20;;
140;SDS011;65;48.778;9.160;2023-02-02T00:49:47;8.73;;;2.25;;
140;SDS011;65;48.778;9.160;2023-02-02T00:52:13;12.30;;;2.70;;
140;SDS011;65;48.778;9.160;2023-02-02T00:54:38;10.35;;;2.40;;
140;SDS011;65;48.778;9.160;2023-02-02T00:57:04;11.05;;;2.10;;
140;SDS011;65;48.778;9.160;2023-02-02T00:59:30;7.40;;;2.33;;
140;SDS011;65;48.778;9.160;2023-02-02T01:01:55;6.15;;;1.95;;
140;SDS011;65;48.778;9.160;2023-02-02T01:04:21;10.20;;;2.33;;
140;SDS011;65;48.778;9.160;2023-02-02T01:06:46;10.05;;;2.83;;
140;SDS011;65;48.778;9.160;2023-02-02T01:09:12;8.10;;;2.17;;
140;SDS011;65;48.778;9.160;2023-02-02T01:11:37;6.93;;;2.28;;
140;SDS011;65;48.778;9.160;2023-02-02T01:14:02;9.85;;;2.55;;
140;SDS011;65;48.778;9.160;2023-02-02T01:16:28;6.03;;;1.95;;
140;SDS011;65;48.778;9.160;2023-02-02T01:18:53;8.63;;;2.20;;
140;SDS011;65;48.778;9.160;2023-02-02T01:21:19;11.23;;;2.33;;
140;SDS011;65;48.778;9.160;2023-02-02T01:23:45;11.00;;;2.50;;
140;SDS011;65;48.778;9.160;2023-02-02T01:26:11;11.02;;;2.33;;
140;SDS011;65;48.778;9.160;2023-02-02T01:28:37;8.90;;;2.30;;
140;SDS011;65;48.778;9.160;2023-02-02T01:31:04;8.98;;;2.10;;
140;SDS011;65;48.778;9.160;2023-02-02T01:33:38;7.20;;;2.15;;
140;SDS011;65;48.778;9.160;2023-02-02T01:36:05;14.43;;;2.22;;
140;SDS011;65;48.778;9.160;2023-02-02T01:38:32;10.32;;;2.28;;
140;SDS011;65;48.778;9.160;2023-02-02T01:40:59;8.27;;;2.10;;
140;SDS011;65;48.778;9.160;2023-02-02T01:43:30;5.85;;;1.95;;
140;SDS011;65;48.778;9.160;2023-02-02T01:46:15;8.93;;;2.03;;
140;SDS011;65;48.778;9.160;2023-02-02T01:48:51;5.95;;;2.15;;
140;SDS011;65;48.778;9.160;2023-02-02T01:51:20;9.30;;;2.05;;
140;SDS011;65;48.778;9.160;2023-02-02T01:53:50;5.45;;;2.00;;
140;SDS011;65;48.778;9.160;2023-02-02T01:56:20;7.22;;;2.63;;
140;SDS011;65;48.778;9.160;2023-02-02T01:58:51;6.85;;;1.88;;
140;SDS011;65;48.778;9.160;2023-02-02T02:01:17;8.15;;;2.00;;
140;SDS011;65;48.778;9.160;2023-02-02T02:03:42;4.47;;;1.80;;
140;SDS011;65;48.778;9.160;2023-02-02T02:06:11;6.50;;;2.00;;
140;SDS011;65;48.778;9.160;2023-02-02T02:08:42;8.32;;;2.53;;
140;SDS011;65;48.778;9.160;2023-02-02T02:11:13;8.05;;;2.53;;
140;SDS011;65;48.778;9.160;2023-02-02T02:13:38;9.18;;;2.53;;
140;SDS011;65;48.778;9.160;2023-02-02T02:33:57;5.75;;;2.20;;
140;SDS011;65;48.778;9.160;2023-02-02T02:39:08;8.00;;;1.80;;
140;SDS011;65;48.778;9.160;2023-02-02T02:41:38;5.22;;;1.77;;
140;SDS011;65;48.778;9.160;2023-02-02T02:44:08;7.32;;;1.75;;
140;SDS011;65;48.778;9.160;2023-02-02T02:46:38;6.10;;;1.90;;
140;SDS011;65;48.778;9.160;2023-02-02T02:49:06;9.65;;;2.05;;
140;SDS011;65;48.778;9.160;2023-02-02T03:02:21;5.30;;;1.85;;
140;SDS011;65;48.778;9.160;2023-02-02T03:07:27;8.43;;;1.95;;
140;SDS011;65;48.778;9.160;2023-02-02T03:09:59;5.90;;;1.77;;
140;SDS011;65;48.778;9.160;2023-02-02T03:12:27;4.65;;;1.85;;
140;SDS011;65;48.778;9.160;2023-02-02T03:14:52;6.00;;;2.03;;
140;SDS011;65;48.778;9.160;2023-02-02T03:17:18;4.13;;;1.77;;
140;SDS011;65;48.778;9.160;2023-02-02T03:19:43;7.43;;;1.83;;
140;SDS011;65;48.778;9.160;2023-02-02T03:22:08;7.07;;;2.00;;
140;SDS011;65;48.778;9.160;2023-02-02T03:24:34;7.10;;;2.17;;
140;SDS011;65;48.778;9.160;2023-02-02T03:26:59;6.18;;;1.58;;
140;SDS011;65;48.778;9.160;2023-02-02T03:29:25;5.15;;;1.50;;
140;SDS011;65;48.778;9.160;2023-02-02T03:31:51;5.50;;;1.50;;
140;SDS011;65;48.778;9.160;2023-02-02T03:34:17;4.72;;;1.60;;
140;SDS011;65;48.778;9.160;2023-02-02T03:36:42;5.28;;;1.65;;
140;SDS011;65;48.778;9.160;2023-02-02T03:39:07;5.03;;;1.60;;
140;SDS011;65;48.778;9.160;2023-02-02T03:41:33;4.40;;;1.50;;
140;SDS011;65;48.778;9.160;2023-02-02T03:43:58;3.38;;;1.50;;
140;SDS011;65;48.778;9.160;2023-02-02T03:46:23;3.65;;;1.50;;
140;SDS011;65;48.778;9.160;2023-02-02T03:48:49;4.13;;;1.35;;
140;SDS011;65;48.778;9.160;2023-02-02T03:51:14;6.82;;;1.67;;
140;SDS011;65;48.778;9.160;2023-02-02T03:53:40;3.40;;;1.40;;
140;SDS011;65;48.778;9.160;2023-02-02T03:56:11;4.47;;;1.60;;
140;SDS011;65;48.778;9.160;2023-02-02T03:58:37;4.32;;;1.50;;
140;SDS011;65;48.778;9.160;2023-02-02T04:01:03;2.33;;;1.00;;
140;SDS011;65;48.778;9.160;2023-02-02T04:03:35;3.78;;;1.55;;
140;SDS011;65;48.778;9.160;2023-02-02T04:06:00;6.82;;;1.70;;
140;SDS011;65;48.778;9.160;2023-02-02T04:08:26;6.20;;;1.63;;
140;SDS011;65;48.778;9.160;2023-02-02T04:10:52;6.03;;;1.73;;
140;SDS011;65;48.778;9.160;2023-02-02T04:13:18;5.35;;;1.42;;
140;SDS011;65;48.778;9.160;2023-02-02T04:15:43;2.80;;;1.25;;
140;SDS011;65;48.778;9.160;2023-02-02T04:18:08;5.55;;;1.27;;
140;SDS011;65;48.778;9.160;2023-02-02T04:20:34;6.55;;;1.55;;
140;SDS011;65;48.778;9.160;2023-02-02T04:22:59;4.68;;;1.58;;
140;SDS011;65;48.778;9.160;2023-02-02T04:25:24;4.63;;;1.40;;
140;SDS011;65;48.778;9.160;2023-02-02T04:27:50;4.18;;;1.50;;
140;SDS011;65;48.778;9.160;2023-02-02T04:33:30;4.47;;;1.60;;
140;SDS011;65;48.778;9.160;2023-02-02T04:35:58;5.43;;;1.60;;
140;SDS011;65;48.778;9.160;2023-02-02T04:38:23;6.95;;;1.80;;
140;SDS011;65;48.778;9.160;2023-02-02T04:40:49;6.03;;;1.95;;
140;SDS011;65;48.778;9.160;2023-02-02T04:43:14;7.22;;;1.80;;
140;SDS011;65;48.778;9.160;2023-02-02T04:45:40;3.78;;;1.40;;
140;SDS011;65;48.778;9.160;2023-02-02T04:48:06;9.63;;;2.13;;
140;SDS011;65;48.778;9.160;2023-02-02T04:50:31;6.13;;;1.75;;
140;SDS011;65;48.778;9.160;2023-02-02T04:52:57;4.13;;;1.60;;
140;SDS011;65;48.778;9.160;2023-02-02T04:55:23;5.93;;;1.73;;
140;SDS011;65;48.778;9.160;2023-02-02T04:57:48;9.65;;;1.85;;
140;SDS011;65;48.778;9.160;2023-02-02T05:00:14;8.43;;;2.08;;
140;SDS011;65;48.778;9.160;2023-02-02T05:02:40;8.90;;;2.13;;
140;SDS011;65;48.778;9.160;2023-02-02T05:05:07;6.93;;;1.80;;
140;SDS011;65;48.778;9.160;2023-02-02T05:07:35;6.47;;;1.80;;
140;SDS011;65;48.778;9.160;2023-02-02T05:10:00;5.43;;;2.08;;
140;SDS011;65;48.778;9.160;2023-02-02T05:12:26;6.97;;;1.88;;
140;SDS011;65;48.778;9.160;2023-02-02T05:14:51;7.28;;;1.98;;
140;SDS011;65;48.778;9.160;2023-02-02T05:17:16;9.38;;;2.15;;
140;SDS011;65;48.778;9.160;2023-02-02T05:19:42;7.50;;;2.20;;
140;SDS011;65;48.778;9.160;2023-02-02T05:22:07;7.40;;;2.03;;
140;SDS011;65;48.778;9.160;2023-02-02T05:24:33;7.40;;;1.60;;
140;SDS011;65;48.778;9.160;2023-02-02T05:26:58;6.53;;;1.90;;
140;SDS011;65;48.778;9.160;2023-02-02T05:29:28;10.15;;;2.25;;
140;SDS011;65;48.778;9.160;2023-02-02T05:31:54;8.05;;;2.13;;
140;SDS011;65;48.778;9.160;2023-02-02T05:34:20;6.90;;;2.38;;
140;SDS011;65;48.778;9.160;2023-02-02T05:36:46;6.68;;;2.10;;
140;SDS011;65;48.778;9.160;2023-02-02T05:39:11;7.60;;;2.10;;
140;SDS011;65;48.778;9.160;2023-02-02T05:41:37;7.07;;;2.00;;
140;SDS011;65;48.778;9.160;2023-02-02T05:44:02;8.07;;;2.20;;
140;SDS011;65;48.778;9.160;2023-02-02T05:46:28;7.90;;;2.30;;
140;SDS011;65;48.778;9.160;2023-02-02T05:48:54;9.07;;;2.30;;
140;SDS011;65;48.778;9.160;2023-02-02T05:51:23;10.40;;;2.17;;
140;SDS011;65;48.778;9.160;2023-02-02T05:53:52;6.82;;;2.30;;
140;SDS011;65;48.778;9.160;2023-02-02T05:56:17;7.22;;;2.30;;
140;SDS011;65;48.778;9.160;2023-02-02T05:58:43;8.75;;;1.90;;
140;SDS011;65;48.778;9.160;2023-02-02T06:01:11;9.20;;;2.25;;
140;SDS011;65;48.778;9.160;2023-02-02T06:03:36;8.43;;;2.08;;
140;SDS011;65;48.778;9.160;2023-02-02T06:06:02;7.03;;;2.20;;
140;SDS011;65;48.778;9.160;2023-02-02T06:08:27;8.52;;;2.30;;
140;SDS011;65;48.778;9.160;2023-02-02T06:10:53;10.55;;;2.85;;
140;SDS011;65;48.778;9.160;2023-02-02T06:13:18;7.72;;;2.40;;
140;SDS011;65;48.778;9.160;2023-02-02T06:15:44;9.90;;;2.50;;
140;SDS011;65;48.778;9.160;2023-02-02T06:18:09;6.00;;;2.17;;
140;SDS011;65;48.778;9.160;2023-02-02T06:20:35;9.45;;;2.47;;
140;SDS011;65;48.778;9.160;2023-02-02T06:23:00;8.43;;;2.15;;
140;SDS011;65;48.778;9.160;2023-02-02T06:25:26;5.25;;;2.22;;
140;SDS011;65;48.778;9.160;2023-02-02T06:27:58;12.38;;;2.65;;
140;SDS011;65;48.778;9.160;2023-02-02T06:30:24;6.65;;;2.15;;
140;SDS011;65;48.778;9.160;2023-02-02T06:32:50;9.93;;;3.03;;
140;SDS011;65;48.778;9.160;2023-02-02T06:35:15;9.02;;;2.30;;
140;SDS011;65;48.778;9.160;2023-02-02T06:37:41;8.98;;;2.42;;
140;SDS011;65;48.778;9.160;2023-02-02T06:40:07;8.68;;;2.33;;
140;SDS011;65;48.778;9.160;2023-02-02T06:42:33;10.45;;;2.55;;
140;SDS011;65;48.778;9.160;2023-02-02T06:44:58;8.23;;;2.28;;
140;SDS011;65;48.778;9.160;2023-02-02T06:47:24;8.77;;;2.30;;
140;SDS011;65;48.778;9.160;2023-02-02T06:49:49;7.53;;;2.92;;
140;SDS011;65;48.778;9.160;2023-02-02T06:52:15;8.88;;;2.40;;
140;SDS011;65;48.778;9.160;2023-02-02T06:54:40;9.48;;;2.03;;
140;SDS011;65;48.778;9.160;2023-02-02T06:57:05;9.85;;;2.72;;
140;SDS011;65;48.778;9.160;2023-02-02T06:59:31;8.43;;;2.22;;
140;SDS011;65;48.778;9.160;2023-02-02T07:01:56;10.73;;;2.25;;
140;SDS011;65;48.778;9.160;2023-02-02T07:04:21;9.65;;;2.35;;
140;SDS011;65;48.778;9.160;2023-02-02T07:06:47;6.80;;;2.03;;
140;SDS011;65;48.778;9.160;2023-02-02T07:09:12;7.80;;;2.40;;
140;SDS011;65;48.778;9.160;2023-02-02T07:11:37;7.25;;;1.85;;
140;SDS011;65;48.778;9.160;2023-02-02T07:14:03;5.95;;;1.88;;
140;SDS011;65;48.778;9.160;2023-02-02T07:16:29;4.38;;;1.90;;
140;SDS011;65;48.778;9.160;2023-02-02T07:18:55;6.47;;;1.58;;
140;SDS011;65;48.778;9.160;2023-02-02T07:21:22;7.70;;;1.88;;
140;SDS011;65;48.778;9.160;2023-02-02T07:23:49;6.00;;;1.67;;
140;SDS011;65;48.778;9.160;2023-02-02T07:26:16;7.25;;;1.80;;
140;SDS011;65;48.778;9.160;2023-02-02T07:28:43;4.70;;;1.55;;
140;SDS011;65;48.778;9.160;2023-02-02T07:31:17;5.43;;;1.77;;
140;SDS011;65;48.778;9.160;2023-02-02T07:33:45;4.53;;;1.88;;
140;SDS011;65;48.778;9.160;2023-02-02T07:36:12;5.70;;;1.70;;
140;SDS011;65;48.778;9.160;2023-02-02T07:38:42;4.13;;;1.50;;
140;SDS011;65;48.778;9.160;2023-02-02T07:41:09;5.93;;;1.52;;
140;SDS011;65;48.778;9.160;2023-02-02T07:43:34;8.15;;;1.77;;
140;SDS011;65;48.778;9.160;2023-02-02T07:46:00;5.22;;;1.58;;
140;SDS011;65;48.778;9.160;2023-02-02T07:48:27;3.33;;;1.58;;
140;SDS011;65;48.778;9.160;2023-02-02T07:51:03;6.18;;;1.85;;
140;SDS011;65;48.778;9.160;2023-02-02T07:53:30;4.78;;;1.65;;
140;SDS011;65;48.778;9.160;2023-02-02T07:56:09;6.30;;;2.10;;
140;SDS011;65;48.778;9.160;2023-02-02T07:58:39;5.25;;;1.90;;
140;SDS011;65;48.778;9.160;2023-02-02T08:01:12;8.52;;;2.17;;
140;SDS011;65;48.778;9.160;2023-02-02T08:03:39;7.03;;;1.63;;
140;SDS011;65;48.778;9.160;2023-02-02T08:06:13;9.38;;;2.15;;
140;SDS011;65;48.778;9.160;2023-02-02T08:08:42;8.18;;;2.47;;
140;SDS011;65;48.778;9.160;2023-02-02T08:11:08;11.00;;;2.25;;
140;SDS011;65;48.778;9.160;2023-02-02T08:13:34;4.53;;;1.75;;
140;SDS011;65;48.778;9.160;2023-02-02T08:16:00;6.32;;;2.10;;
140;SDS011;65;48.778;9.160;2023-02-02T08:18:26;6.63;;;1.83;;
140;SDS011;65;48.778;9.160;2023-02-02T08:20:51;8.00;;;1.88;;
140;SDS011;65;48.778;9.160;2023-02-02T08:23:17;5.32;;;2.00;;
140;SDS011;65;48.778;9.160;2023-02-02T08:25:47;6.38;;;2.20;;
140;SDS011;65;48.778;9.160;2023-02-02T08:28:14;5.40;;;1.80;;
140;SDS011;65;48.778;9.160;2023-02-02T08:30:39;9.07;;;2.08;;
140;SDS011;65;48.778;9.160;2023-02-02T08:33:05;6.10;;;2.00;;
140;SDS011;65;48.778;9.160;2023-02-02T08:35:30;5.53;;;1.90;;
140;SDS011;65;48.778;9.160;2023-02-02T08:37:56;5.57;;;1.90;;
140;SDS011;65;48.778;9.160;2023-02-02T08:40:21;7.28;;;2.28;;
140;SDS011;65;48.778;9.160;2023-02-02T08:42:51;10.95;;;2.05;;
140;SDS011;65;48.778;9.160;2023-02-02T08:45:17;11.07;;;2.00;;
140;SDS011;65;48.778;9.160;2023-02-02T08:47:42;6.97;;;1.80;;
140;SDS011;65;48.778;9.160;2023-02-02T08:50:08;8.20;;;2.20;;
140;SDS011;65;48.778;9.160;2023-02-02T08:52:34;5.25;;;2.13;;
140;SDS011;65;48.778;9.160;2023-02-02T08:54:59;6.72;;;2.47;;
140;SDS011;65;48.778;9.160;2023-02-02T08:57:25;11.10;;;3.08;;
140;SDS011;65;48.778;9.160;2023-02-02T08:59:54;4.93;;;1.83;;
140;SDS011;65;48.778;9.160;2023-02-02T09:02:19;6.78;;;1.80;;
140;SDS011;65;48.778;9.160;2023-02-02T09:04:45;8.70;;;2.17;;
140;SDS011;65;48.778;9.160;2023-02-02T09:07:12;8.05;;;2.08;;
140;SDS011;65;48.778;9.160;2023-02-02T09:09:37;8.50;;;2.38;;
140;SDS011;65;48.778;9.160;2023-02-02T09:12:03;8.25;;;2.40;;
140;SDS011;65;48.778;9.160;2023-02-02T09:14:28;7.38;;;2.10;;
140;SDS011;65;48.778;9.160;2023-02-02T09:16:54;5.53;;;1.90;;
140;SDS011;65;48.778;9.160;2023-02-02T09:19:19;10.88;;;2.03;;
140;SDS011;65;48.778;9.160;2023-02-02T09:21:44;8.07;;;2.33;;
140;SDS011;65;48.778;9.160;2023-02-02T09:24:11;5.55;;;1.83;;
140;SDS011;65;48.778;9.160;2023-02-02T09:26:37;7.13;;;2.17;;
140;SDS011;65;48.778;9.160;2023-02-02T09:29:04;8.43;;;2.22;;
140;SDS011;65;48.778;9.160;2023-02-02T09:31:34;11.93;;;2.25;;
140;SDS011;65;48.778;9.160;2023-02-02T09:34:04;8.05;;;2.47;;
140;SDS011;65;48.778;9.160;2023-02-02T09:36:32;10.27;;;2.90;;
140;SDS011;65;48.778;9.160;2023-02-02T09:38:57;8.65;;;2.88;;
140;SDS011;65;48.778;9.160;2023-02-02T09:55:35;8.18;;;2.65;;
140;SDS011;65;48.778;9.160;2023-02-02T10:06:28;8.20;;;2.60;;
140;SDS011;65;48.778;9.160;2023-02-02T10:09:16;6.65;;;2.65;;
140;SDS011;65;48.778;9.160;2023-02-02T10:12:46;12.23;;;3.03;;
140;SDS011;65;48.778;9.160;2023-02-02T10:15:18;9.30;;;2.90;;
140;SDS011;65;48.778;9.160;2023-02-02T10:18:13;5.30;;;2.22;;
140;SDS011;65;48.778;9.160;2023-02-02T10:20:58;8.50;;;2.63;;
140;SDS011;65;48.778;9.160;2023-02-02T10:25:57;8.52;;;2.67;;
140;SDS011;65;48.778;9.160;2023-02-02T10:28:52;8.70;;;2.67;;
140;SDS011;65;48.778;9.160;2023-02-02T10:34:21;10.40;;;3.00;;
140;SDS011;65;48.778;9.160;2023-02-02T10:45:53;11.63;;;2.60;;
140;SDS011;65;48.778;9.160;2023-02-02T10:48:21;9.32;;;2.55;;
140;SDS011;65;48.778;9.160;2023-02-02T10:50:53;6.80;;;2.38;;
140;SDS011;65;48.778;9.160;2023-02-02T10:53:22;6.53;;;2.20;;
140;SDS011;65;48.778;9.160;2023-02-02T10:55:53;8.90;;;2.47;;
140;SDS011;65;48.778;9.160;2023-02-02T10:58:51;5.63;;;2.20;;
140;SDS011;65;48.778;9.160;2023-02-02T11:01:25;8.80;;;2.58;;
140;SDS011;65;48.778;9.160;2023-02-02T11:03:50;7.53;;;1.95;;
140;SDS011;65;48.778;9.160;2023-02-02T11:06:36;5.88;;;2.30;;
140;SDS011;65;48.778;9.160;2023-02-02T11:09:13;6.78;;;2.20;;
140;SDS011;65;48.778;9.160;2023-02-02T11:11:53;6.80;;;2.28;;
140;SDS011;65;48.778;9.160;2023-02-02T11:17:00;6.47;;;2.22;;
140;SDS011;65;48.778;9.160;2023-02-02T11:19:30;8.77;;;2.67;;
140;SDS011;65;48.778;9.160;2023-02-02T11:21:58;5.82;;;2.00;;
140;SDS011;65;48.778;9.160;2023-02-02T11:26:54;6.30;;;2.30;;
140;SDS011;65;48.778;9.160;2023-02-02T11:29:25;7.53;;;2.40;;
140;SDS011;65;48.778;9.160;2023-02-02T11:31:52;6.95;;;2.30;;
140;SDS011;65;48.778;9.160;2023-02-02T11:34:19;7.70;;;2.30;;
140;SDS011;65;48.778;9.160;2023-02-02T11:36:57;9.95;;;2.10;;
140;SDS011;65;48.778;9.160;2023-02-02T11:39:22;6.35;;;2.10;;
140;SDS011;65;48.778;9.160;2023-02-02T11:41:48;5.05;;;1.90;;
140;SDS011;65;48.778;9.160;2023-02-02T11:44:20;7.95;;;2.17;;
140;SDS011;65;48.778;9.160;2023-02-02T11:46:50;7.13;;;2.30;;
140;SDS011;65;48.778;9.160;2023-02-02T11:49:18;7.22;;;1.95;;
140;SDS011;65;48.778;9.160;2023-02-02T11:52:05;6.43;;;2.05;;
140;SDS011;65;48.778;9.160;2023-02-02T11:54:39;8.02;;;2.22;;
140;SDS011;65;48.778;9.160;2023-02-02T11:57:14;8.52;;;2.00;;
140;SDS011;65;48.778;9.160;2023-02-02T11:59:43;5.82;;;1.98;;
140;SDS011;65;48.778;9.160;2023-02-02T12:04:43;7.85;;;2.35;;
140;SDS011;65;48.778;9.160;2023-02-02T12:07:20;6.53;;;2.20;;
140;SDS011;65;48.778;9.160;2023-02-02T12:10:00;9.15;;;2.40;;
140;SDS011;65;48.778;9.160;2023-02-02T12:21:12;9.15;;;2.38;;
140;SDS011;65;48.778;9.160;2023-02-02T12:26:34;4.93;;;2.20;;
140;SDS011;65;48.778;9.160;2023-02-02T12:44:43;5.28;;;2.13;;
140;SDS011;65;48.778;9.160;2023-02-02T12:50:05;9.57;;;2.30;;
140;SDS011;65;48.778;9.160;2023-02-02T12:55:39;8.55;;;2.70;;
140;SDS011;65;48.778;9.160;2023-02-02T13:04:45;7.55;;;2.05;;
140;SDS011;65;48.778;9.160;2023-02-02T13:09:16;8.05;;;2.25;;
140;SDS011;65;48.778;9.160;2023-02-02T13:12:01;6.30;;;2.10;;
140;SDS011;65;48.778;9.160;2023-02-02T13:17:06;8.82;;;2.40;;
140;SDS011;65;48.778;9.160;2023-02-02T13:19:42;6.43;;;2.42;;
140;SDS011;65;48.778;9.160;2023-02-02T13:22:24;6.35;;;2.05;;
140;SDS011;65;48.778;9.160;2023-02-02T13:24:55;6.53;;;2.40;;
140;SDS011;65;48.778;9.160;2023-02-02T13:27:24;7.32;;;2.58;;
140;SDS011;65;48.778;9.160;2023-02-02T13:30:11;8.25;;;2.67;;
140;SDS011;65;48.778;9.160;2023-02-02T13:32:53;10.40;;;2.85;;
140;SDS011;65;48.778;9.160;2023-02-02T13:35:24;6.93;;;2.35;;
140;SDS011;65;48.778;9.160;2023-02-02T13:40:37;8.85;;;2.40;;
140;SDS011;65;48.778;9.160;2023-02-02T13:43:27;6.20;;;2.25;;
140;SDS011;65;48.778;9.160;2023-02-02T14:01:59;8.38;;;2.20;;
140;SDS011;65;48.778;9.160;2023-02-02T14:04:26;8.27;;;2.83;;
140;SDS011;65;48.778;9.160;2023-02-02T14:09:28;10.73;;;2.63;;
140;SDS011;65;48.778;9.160;2023-02-02T14:11:58;9.05;;;2.42;;
140;SDS011;65;48.778;9.160;2023-02-02T14:14:26;7.97;;;2.35;;
140;SDS011;65;48.778;9.160;2023-02-02T14:27:53;9.25;;;2.30;;
140;SDS011;65;48.778;9.160;2023-02-02T14:30:20;11.68;;;3.03;;
140;SDS011;65;48.778;9.160;2023-02-02T14:32:48;8.13;;;2.35;;
140;SDS011;65;48.778;9.160;2023-02-02T14:40:21;9.32;;;2.58;;
140;SDS011;65;48.778;9.160;2023-02-02T14:48:31;8.52;;;2.20;;
140;SDS011;65;48.778;9.160;2023-02-02T14:50:58;10.52;;;2.53;;
140;SDS011;65;48.778;9.160;2023-02-02T14:53:32;10.45;;;2.60;;
140;SDS011;65;48.778;9.160;2023-02-02T15:00:55;10.30;;;2.45;;
140;SDS011;65;48.778;9.160;2023-02-02T15:19:50;7.38;;;2.00;;
140;SDS011;65;48.778;9.160;2023-02-02T15:22:37;8.77;;;2.13;;
140;SDS011;65;48.778;9.160;2023-02-02T15:27:53;8.52;;;2.20;;
140;SDS011;65;48.778;9.160;2023-02-02T15:30:29;6.82;;;1.80;;
140;SDS011;65;48.778;9.160;2023-02-02T15:32:57;6.90;;;1.92;;
140;SDS011;65;48.778;9.160;2023-02-02T15:35:33;7.85;;;1.98;;
140;SDS011;65;48.778;9.160;2023-02-02T15:37:59;9.07;;;2.42;;
140;SDS011;65;48.778;9.160;2023-02-02T15:40:47;8.48;;;2.13;;
140;SDS011;65;48.778;9.160;2023-02-02T15:43:22;7.40;;;2.00;;
140;SDS011;65;48.778;9.160;2023-02-02T15:45:52;9.73;;;1.95;;
140;SDS011;65;48.778;9.160;2023-02-02T15:48:28;9.55;;;2.22;;
140;SDS011;65;48.778;9.160;2023-02-02T15:51:13;8.68;;;2.40;;
140;SDS011;65;48.778;9.160;2023-02-02T15:53:46;8.07;;;2.40;;
140;SDS011;65;48.778;9.160;2023-02-02T15:56:17;8.40;;;2.10;;
140;SDS011;65;48.778;9.160;2023-02-02T15:58:49;6.45;;;2.10;;
140;SDS011;65;48.778;9.160;2023-02-02T16:01:17;7.65;;;2.42;;
140;SDS011;65;48.778;9.160;2023-02-02T16:04:32;9.13;;;2.20;;
140;SDS011;65;48.778;9.160;2023-02-02T16:06:49;5.93;;;1.85;;
140;SDS011;65;48.778;9.160;2023-02-02T16:09:21;8.32;;;2.58;;
140;SDS011;65;48.778;9.160;2023-02-02T16:12:19;9.27;;;2.00;;
140;SDS011;65;48.778;9.160;2023-02-02T16:15:09;11.80;;;2.22;;
140;SDS011;65;48.778;9.160;2023-02-02T16:18:12;10.23;;;2.63;;
140;SDS011;65;48.778;9.160;2023-02-02T16:21:00;9.50;;;2.75;;
140;SDS011;65;48.778;9.160;2023-02-02T16:23:50;9.73;;;2.10;;
140;SDS011;65;48.778;9.160;2023-02-02T16:26:37;7.95;;;2.05;;
140;SDS011;65;48.778;9.160;2023-02-02T16:29:23;3.83;;;1.60;;
140;SDS011;65;48.778;9.160;2023-02-02T16:35:37;9.40;;;2.20;;
140;SDS011;65;48.778;9.160;2023-02-02T16:38:31;6.70;;;2.20;;
140;SDS011;65;48.778;9.160;2023-02-02T16:41:24;6.35;;;1.98;;
140;SDS011;65;48.778;9.160;2023-02-02T16:53:12;7.43;;;2.13;;
140;SDS011;65;48.778;9.160;2023-02-02T16:56:07;6.95;;;2.20;;
140;SDS011;65;48.778;9.160;2023-02-02T16:58:54;4.55;;;1.70;;
140;SDS011;65;48.778;9.160;2023-02-02T17:01:43;6.15;;;1.98;;
140;SDS011;65;48.778;9.160;2023-02-02T17:04:34;7.00;;;2.35;;
140;SDS011;65;48.778;9.160;2023-02-02T17:07:20;5.13;;;1.73;;
140;SDS011;65;48.778;9.160;2023-02-02T17:13:51;4.70;;;1.60;;
140;SDS011;65;48.778;9.160;2023-02-02T17:16:16;5.40;;;1.90;;
140;SDS011;65;48.778;9.160;2023-02-02T17:19:04;4.25;;;1.80;;
140;SDS011;65;48.778;9.160;2023-02-02T17:21:49;3.33;;;1.90;;
140;SDS011;65;48.778;9.160;2023-02-02T17:24:35;4.88;;;1.60;;
140;SDS011;65;48.778;9.160;2023-02-02T17:27:25;2.92;;;1.20;;
140;SDS011;65;48.778;9.160;2023-02-02T17:30:17;4.72;;;1.95;;
140;SDS011;65;48.778;9.160;2023-02-02T17:33:04;4.55;;;1.73;;
140;SDS011;65;48.778;9.160;2023-02-02T17:35:53;3.88;;;1.77;;
140;SDS011;65;48.778;9.160;2023-02-02T17:38:39;6.32;;;1.70;;
140;SDS011;65;48.778;9.160;2023-02-02T17:41:25;3.95;;;1.70;;
140;SDS011;65;48.778;9.160;2023-02-02T17:44:11;4.15;;;1.73;;
140;SDS011;65;48.778;9.160;2023-02-02T17:46:56;4.60;;;1.77;;
140;SDS011;65;48.778;9.160;2023-02-02T17:49:42;5.10;;;1.70;;
140;SDS011;65;48.778;9.160;2023-02-02T17:52:28;4.28;;;1.60;;
140;SDS011;65;48.778;9.160;2023-02-02T17:55:18;3.63;;;1.75;;
140;SDS011;65;48.778;9.160;2023-02-02T17:58:07;3.83;;;1.77;;
140;SDS011;65;48.778;9.160;2023-02-02T18:00:54;5.07;;;1.70;;
140;SDS011;65;48.778;9.160;2023-02-02T18:06:50;5.60;;;1.60;;
140;SDS011;65;48.778;9.160;2023-02-02T18:09:36;6.47;;;1.45;;
140;SDS011;65;48.778;9.160;2023-02-02T18:12:22;3.50;;;1.50;;
140;SDS011;65;48.778;9.160;2023-02-02T18:15:10;4.40;;;2.33;;
140;SDS011;65;48.778;9.160;2023-02-02T18:17:57;5.05;;;1.75;;
140;SDS011;65;48.778;9.160;2023-02-02T18:20:44;4.03;;;1.50;;
140;SDS011;65;48.778;9.160;2023-02-02T18:23:31;3.83;;;1.70;;
140;SDS011;65;48.778;9.160;2023-02-02T18:26:18;4.28;;;1.90;;
140;SDS011;65;48.778;9.160;2023-02-02T18:29:06;5.47;;;2.20;;
140;SDS011;65;48.778;9.160;2023-02-02T18:31:52;2.97;;;1.42;;
140;SDS011;65;48.778;9.160;2023-02-02T18:34:37;5.82;;;1.83;;
140;SDS011;65;48.778;9.160;2023-02-02T18:37:23;4.93;;;1.45;;
140;SDS011;65;48.778;9.160;2023-02-02T18:40:10;2.70;;;1.40;;
140;SDS011;65;48.778;9.160;2023-02-02T18:42:56;7.10;;;1.90;;
140;SDS011;65;48.778;9.160;2023-02-02T18:45:42;3.30;;;1.50;;
140;SDS011;65;48.778;9.160;2023-02-02T18:48:27;6.60;;;1.90;;
140;SDS011;65;48.778;9.160;2023-02-02T18:51:14;7.93;;;1.80;;
140;SDS011;65;48.778;9.160;2023-02-02T18:54:02;4.47;;;2.03;;
140;SDS011;65;48.778;9.160;2023-02-02T18:56:48;5.70;;;2.13;;
140;SDS011;65;48.778;9.160;2023-02-02T18:59:33;8.77;;;2.20;;
140;SDS011;65;48.778;9.160;2023-02-02T19:02:20;4.18;;;1.42;;
140;SDS011;65;48.778;9.160;2023-02-02T19:05:06;4.82;;;1.60;;
140;SDS011;65;48.778;9.160;2023-02-02T19:08:27;3.45;;;1.70;;
140;SDS011;65;48.778;9.160;2023-02-02T19:11:20;2.65;;;1.50;;
140;SDS011;65;48.778;9.160;2023-02-02T19:17:08;5.18;;;1.45;;
140;SDS011;65;48.778;9.160;2023-02-02T19:20:05;2.95;;;1.38;;
140;SDS011;65;48.778;9.160;2023-02-02T19:23:18;4.80;;;1.60;;
140;SDS011;65;48.778;9.160;2023-02-02T19:26:17;3.97;;;1.40;;
140;SDS011;65;48.778;9.160;2023-02-02T19:29:15;5.63;;;1.60;;
140;SDS011;65;48.778;9.160;2023-02-02T19:32:07;2.63;;;1.50;;
140;SDS011;65;48.778;9.160;2023-02-02T19:34:59;6.07;;;1.90;;
140;SDS011;65;48.778;9.160;2023-02-02T19:37:48;3.85;;;1.60;;
140;SDS011;65;48.778;9.160;2023-02-02T19:40:41;3.95;;;1.75;;
140;SDS011;65;48.778;9.160;2023-02-02T19:43:28;2.08;;;1.35;;
140;SDS011;65;48.778;9.160;2023-02-02T19:46:17;3.65;;;1.60;;
140;SDS011;65;48.778;9.160;2023-02-02T19:48:44;7.00;;;1.70;;
140;SDS011;65;48.778;9.160;2023-02-02T19:54:11;5.68;;;1.80;;
140;SDS011;65;48.778;9.160;2023-02-02T19:56:42;4.25;;;1.63;;
140;SDS011;65;48.778;9.160;2023-02-02T19:59:17;4.00;;;1.65;;
140;SDS011;65;48.778;9.160;2023-02-02T20:01:44;5.45;;;1.70;;
140;SDS011;65;48.778;9.160;2023-02-02T20:04:13;4.00;;;1.65;;
140;SDS011;65;48.778;9.160;2023-02-02T20:06:39;2.95;;;1.42;;
140;SDS011;65;48.778;9.160;2023-02-02T20:09:23;2.60;;;1.38;;
140;SDS011;65;48.778;9.160;2023-02-02T20:12:17;2.22;;;1.30;;